SWA2530 KSAT-KLAS
Flight info
| Callsign | SWA2530 |
|---|---|
| Flight time | 2h 29m |
| Altitude | 38000 |
| Route | ALISS7 ALISS FST EWM KA15S KA21Q KA27O DRK ELLDA RKSTR4 |
| Aircraft | B738/M-SADE2E3GIJ4RWZ/LB1D1 |
Departure
| Time | 2026-05-08 15:06 |
|---|---|
| Airport | San Antonio International Airport (KSAT) |
Arrival
| Time | 2026-05-08 17:36 |
|---|---|
| Airport | Harry Reid International Airport (KLAS) |
| Time | Latitude | Longitude | Altitude | Speed | Heading |
|---|---|---|---|---|---|
| 2026-05-08 14:22 | 29.52736 | -98.47091 | 807 ft | 0 kts | 146° |
| 2026-05-08 14:56 | 29.52737 | -98.47092 | 814 ft | 2 kts | 146° |
| 2026-05-08 14:56 | 29.52758 | -98.47107 | 795 ft | 4 kts | 147° |
| 2026-05-08 14:57 | 29.52777 | -98.47125 | 795 ft | 4 kts | 105° |
| 2026-05-08 14:57 | 29.52777 | -98.47133 | 794 ft | 1 kts | 42° |
| 2026-05-08 14:57 | 29.52775 | -98.47135 | 794 ft | 0 kts | 42° |
| 2026-05-08 15:01 | 29.52785 | -98.47125 | 795 ft | 5 kts | 41° |
| 2026-05-08 15:02 | 29.52830 | -98.47081 | 795 ft | 11 kts | 41° |
| 2026-05-08 15:02 | 29.52874 | -98.46993 | 795 ft | 12 kts | 60° |
| 2026-05-08 15:02 | 29.52852 | -98.46911 | 795 ft | 12 kts | 131° |
| 2026-05-08 15:02 | 29.52799 | -98.46843 | 795 ft | 11 kts | 131° |
| 2026-05-08 15:03 | 29.52745 | -98.46785 | 795 ft | 9 kts | 164° |
| 2026-05-08 15:03 | 29.52685 | -98.46807 | 795 ft | 9 kts | 207° |
| 2026-05-08 15:03 | 29.52636 | -98.46849 | 795 ft | 9 kts | 221° |
| 2026-05-08 15:03 | 29.52589 | -98.46896 | 795 ft | 10 kts | 221° |
| 2026-05-08 15:04 | 29.52530 | -98.46954 | 795 ft | 13 kts | 220° |
| 2026-05-08 15:04 | 29.52455 | -98.47030 | 795 ft | 15 kts | 222° |
| 2026-05-08 15:04 | 29.52406 | -98.47061 | 795 ft | 4 kts | 178° |
| 2026-05-08 15:04 | 29.52403 | -98.47060 | 795 ft | 0 kts | 173° |
| 2026-05-08 15:05 | 29.52396 | -98.47058 | 795 ft | 3 kts | 163° |
| 2026-05-08 15:05 | 29.52367 | -98.47032 | 795 ft | 8 kts | 133° |
| 2026-05-08 15:05 | 29.52350 | -98.46966 | 795 ft | 10 kts | 58° |
| 2026-05-08 15:05 | 29.52425 | -98.46892 | 795 ft | 33 kts | 40° |
| 2026-05-08 15:06 | 29.52797 | -98.46526 | 795 ft | 106 kts | 40° |
| 2026-05-08 15:06 | 29.53517 | -98.45817 | 827 ft | 161 kts | 40° |
| 2026-05-08 15:06 | 29.54370 | -98.44989 | 1608 ft | 162 kts | 41° |
| 2026-05-08 15:06 | 29.55276 | -98.44131 | 2229 ft | 176 kts | 41° |
| 2026-05-08 15:07 | 29.56296 | -98.43167 | 2469 ft | 203 kts | 41° |
| 2026-05-08 15:07 | 29.57456 | -98.42085 | 2652 ft | 226 kts | 40° |
| 2026-05-08 15:07 | 29.58777 | -98.40974 | 2876 ft | 244 kts | 26° |
| 2026-05-08 15:07 | 29.60489 | -98.40728 | 3114 ft | 261 kts | 347° |
| 2026-05-08 15:08 | 29.62063 | -98.41746 | 3503 ft | 270 kts | 309° |
| 2026-05-08 15:08 | 29.62845 | -98.42900 | 3994 ft | 270 kts | 304° |
| 2026-05-08 15:08 | 29.64337 | -98.45206 | 4992 ft | 273 kts | 304° |
| 2026-05-08 15:08 | 29.65493 | -98.46963 | 5713 ft | 277 kts | 305° |
| 2026-05-08 15:09 | 29.66679 | -98.48728 | 6508 ft | 279 kts | 306° |
| 2026-05-08 15:09 | 29.67887 | -98.50499 | 7397 ft | 282 kts | 306° |
| 2026-05-08 15:09 | 29.69107 | -98.52263 | 8320 ft | 283 kts | 306° |
| 2026-05-08 15:09 | 29.70346 | -98.54042 | 9242 ft | 285 kts | 306° |
| 2026-05-08 15:10 | 29.71594 | -98.55821 | 10106 ft | 288 kts | 306° |
| 2026-05-08 15:10 | 29.72886 | -98.57661 | 10586 ft | 306 kts | 306° |
| 2026-05-08 15:10 | 29.74285 | -98.59653 | 10766 ft | 332 kts | 306° |
| 2026-05-08 15:10 | 29.75766 | -98.61754 | 11102 ft | 349 kts | 306° |
| 2026-05-08 15:11 | 29.77312 | -98.63939 | 11752 ft | 354 kts | 306° |
| 2026-05-08 15:11 | 29.78878 | -98.66149 | 12550 ft | 356 kts | 306° |
| 2026-05-08 15:11 | 29.80448 | -98.68363 | 13339 ft | 358 kts | 306° |
| 2026-05-08 15:11 | 29.82033 | -98.70601 | 14065 ft | 362 kts | 306° |
| 2026-05-08 15:12 | 29.83629 | -98.72858 | 14740 ft | 366 kts | 306° |
| 2026-05-08 15:12 | 29.85247 | -98.75148 | 15422 ft | 369 kts | 306° |
| 2026-05-08 15:12 | 29.86869 | -98.77444 | 16179 ft | 370 kts | 305° |
| 2026-05-08 15:12 | 29.88496 | -98.79748 | 16949 ft | 371 kts | 305° |
| 2026-05-08 15:13 | 29.90127 | -98.82059 | 17641 ft | 374 kts | 305° |
| 2026-05-08 15:13 | 29.91771 | -98.84392 | 18320 ft | 376 kts | 305° |
| 2026-05-08 15:13 | 29.93428 | -98.86745 | 18912 ft | 379 kts | 304° |
| 2026-05-08 15:13 | 29.95094 | -98.89111 | 19522 ft | 380 kts | 304° |
| 2026-05-08 15:14 | 29.96764 | -98.91484 | 20104 ft | 383 kts | 303° |
| 2026-05-08 15:14 | 29.98429 | -98.93853 | 20665 ft | 386 kts | 303° |
| 2026-05-08 15:14 | 30.00144 | -98.96293 | 21252 ft | 388 kts | 302° |
| 2026-05-08 15:14 | 30.01830 | -98.98693 | 21805 ft | 390 kts | 302° |
| 2026-05-08 15:15 | 30.03549 | -99.01142 | 22359 ft | 393 kts | 302° |
| 2026-05-08 15:15 | 30.05274 | -99.03601 | 22902 ft | 395 kts | 301° |
| 2026-05-08 15:15 | 30.07013 | -99.06080 | 23409 ft | 398 kts | 301° |
| 2026-05-08 15:15 | 30.08761 | -99.08574 | 23883 ft | 400 kts | 301° |
| 2026-05-08 15:16 | 30.10370 | -99.11172 | 24297 ft | 395 kts | 292° |
| 2026-05-08 15:16 | 30.11613 | -99.13990 | 24721 ft | 390 kts | 286° |
| 2026-05-08 15:16 | 30.12479 | -99.16934 | 25155 ft | 386 kts | 279° |
| 2026-05-08 15:16 | 30.13174 | -99.19934 | 25561 ft | 387 kts | 278° |
| 2026-05-08 15:17 | 30.13861 | -99.22951 | 25940 ft | 390 kts | 278° |
| 2026-05-08 15:17 | 30.14544 | -99.25954 | 26314 ft | 392 kts | 278° |
| 2026-05-08 15:17 | 30.15242 | -99.29010 | 26705 ft | 394 kts | 278° |
| 2026-05-08 15:17 | 30.15949 | -99.32087 | 27092 ft | 396 kts | 278° |
| 2026-05-08 15:18 | 30.16661 | -99.35172 | 27456 ft | 398 kts | 278° |
| 2026-05-08 15:18 | 30.17379 | -99.38276 | 27807 ft | 400 kts | 278° |
| 2026-05-08 15:18 | 30.18099 | -99.41391 | 28151 ft | 402 kts | 278° |
| 2026-05-08 15:18 | 30.18827 | -99.44533 | 28496 ft | 404 kts | 278° |
| 2026-05-08 15:19 | 30.19547 | -99.47645 | 28867 ft | 406 kts | 278° |
| 2026-05-08 15:19 | 30.20279 | -99.50809 | 29230 ft | 407 kts | 278° |
| 2026-05-08 15:19 | 30.21008 | -99.53968 | 29555 ft | 409 kts | 278° |
| 2026-05-08 15:19 | 30.21742 | -99.57145 | 29997 ft | 408 kts | 278° |
| 2026-05-08 15:20 | 30.22471 | -99.60303 | 30446 ft | 405 kts | 278° |
| 2026-05-08 15:20 | 30.23195 | -99.63435 | 30923 ft | 401 kts | 277° |
| 2026-05-08 15:20 | 30.23911 | -99.66545 | 31381 ft | 399 kts | 277° |
| 2026-05-08 15:20 | 30.24624 | -99.69651 | 31775 ft | 398 kts | 277° |
| 2026-05-08 15:21 | 30.25332 | -99.72741 | 32176 ft | 397 kts | 277° |
| 2026-05-08 15:21 | 30.26037 | -99.75819 | 32598 ft | 394 kts | 277° |
| 2026-05-08 15:21 | 30.26737 | -99.78877 | 33034 ft | 392 kts | 277° |
| 2026-05-08 15:21 | 30.27431 | -99.81914 | 33475 ft | 390 kts | 277° |
| 2026-05-08 15:22 | 30.28121 | -99.84937 | 33928 ft | 388 kts | 277° |
| 2026-05-08 15:22 | 30.28807 | -99.87945 | 34326 ft | 385 kts | 277° |
| 2026-05-08 15:22 | 30.29486 | -99.90931 | 34612 ft | 385 kts | 277° |
| 2026-05-08 15:22 | 30.30169 | -99.93943 | 34858 ft | 385 kts | 277° |
| 2026-05-08 15:23 | 30.30849 | -99.96939 | 35147 ft | 385 kts | 277° |
| 2026-05-08 15:23 | 30.31527 | -99.99928 | 35458 ft | 383 kts | 277° |
| 2026-05-08 15:23 | 30.32201 | -100.02904 | 35743 ft | 382 kts | 277° |
| 2026-05-08 15:23 | 30.32867 | -100.05845 | 36002 ft | 382 kts | 277° |
| 2026-05-08 15:24 | 30.33539 | -100.08818 | 36286 ft | 381 kts | 277° |
| 2026-05-08 15:24 | 30.34209 | -100.11787 | 36578 ft | 380 kts | 277° |
| 2026-05-08 15:24 | 30.34877 | -100.14747 | 36856 ft | 380 kts | 277° |
| 2026-05-08 15:24 | 30.35544 | -100.17706 | 37108 ft | 379 kts | 277° |
| 2026-05-08 15:25 | 30.36208 | -100.20658 | 37389 ft | 379 kts | 277° |
| 2026-05-08 15:25 | 30.36873 | -100.23616 | 37706 ft | 377 kts | 277° |
| 2026-05-08 15:25 | 30.37535 | -100.26558 | 37989 ft | 376 kts | 277° |
| 2026-05-08 15:25 | 30.38194 | -100.29508 | 37958 ft | 380 kts | 277° |
| 2026-05-08 15:26 | 30.39520 | -100.35433 | 37984 ft | 378 kts | 277° |
| 2026-05-08 15:26 | 30.40825 | -100.41262 | 37994 ft | 374 kts | 277° |
| 2026-05-08 15:27 | 30.42124 | -100.47082 | 38010 ft | 372 kts | 277° |
| 2026-05-08 15:27 | 30.43410 | -100.52868 | 38028 ft | 371 kts | 276° |
| 2026-05-08 15:28 | 30.44692 | -100.58651 | 38064 ft | 371 kts | 276° |
| 2026-05-08 15:28 | 30.45975 | -100.64454 | 38051 ft | 372 kts | 276° |
| 2026-05-08 15:29 | 30.47263 | -100.70290 | 38047 ft | 374 kts | 276° |
| 2026-05-08 15:29 | 30.48554 | -100.76147 | 38043 ft | 376 kts | 277° |
| 2026-05-08 15:30 | 30.49840 | -100.82000 | 38029 ft | 378 kts | 276° |
| 2026-05-08 15:30 | 30.51139 | -100.87917 | 38023 ft | 379 kts | 277° |
| 2026-05-08 15:31 | 30.52440 | -100.93862 | 38000 ft | 381 kts | 277° |
| 2026-05-08 15:31 | 30.53744 | -100.99830 | 38000 ft | 381 kts | 277° |
| 2026-05-08 15:32 | 30.54825 | -101.04788 | 38008 ft | 381 kts | 277° |
| 2026-05-08 15:32 | 30.56335 | -101.11733 | 38024 ft | 381 kts | 276° |
| 2026-05-08 15:33 | 30.57627 | -101.17688 | 38027 ft | 380 kts | 276° |
| 2026-05-08 15:33 | 30.58699 | -101.22642 | 38034 ft | 379 kts | 276° |
| 2026-05-08 15:34 | 30.59979 | -101.28569 | 37966 ft | 378 kts | 276° |
| 2026-05-08 15:34 | 30.61254 | -101.34486 | 37960 ft | 378 kts | 276° |
| 2026-05-08 15:35 | 30.62524 | -101.40400 | 37954 ft | 377 kts | 276° |
| 2026-05-08 15:35 | 30.63790 | -101.46308 | 37969 ft | 377 kts | 276° |
| 2026-05-08 15:36 | 30.65052 | -101.52208 | 37963 ft | 376 kts | 276° |
| 2026-05-08 15:36 | 30.66312 | -101.58114 | 37956 ft | 377 kts | 276° |
| 2026-05-08 15:37 | 30.67569 | -101.64024 | 37975 ft | 377 kts | 276° |
| 2026-05-08 15:37 | 30.68826 | -101.69943 | 37971 ft | 378 kts | 276° |
| 2026-05-08 15:38 | 30.70076 | -101.75843 | 37965 ft | 378 kts | 276° |
| 2026-05-08 15:38 | 30.71333 | -101.81798 | 37965 ft | 380 kts | 277° |
| 2026-05-08 15:39 | 30.72594 | -101.87778 | 37963 ft | 382 kts | 277° |
| 2026-05-08 15:39 | 30.73860 | -101.93801 | 37950 ft | 383 kts | 277° |
| 2026-05-08 15:40 | 30.75118 | -101.99797 | 37959 ft | 384 kts | 277° |
| 2026-05-08 15:40 | 30.76384 | -102.05843 | 37956 ft | 385 kts | 277° |
| 2026-05-08 15:41 | 30.77648 | -102.11895 | 37954 ft | 385 kts | 277° |
| 2026-05-08 15:41 | 30.78909 | -102.17951 | 37950 ft | 386 kts | 277° |
| 2026-05-08 15:42 | 30.80169 | -102.24017 | 37940 ft | 386 kts | 277° |
| 2026-05-08 15:42 | 30.81428 | -102.30094 | 37939 ft | 386 kts | 277° |
| 2026-05-08 15:43 | 30.82680 | -102.36150 | 37928 ft | 385 kts | 277° |
| 2026-05-08 15:43 | 30.83923 | -102.42179 | 37923 ft | 385 kts | 277° |
| 2026-05-08 15:44 | 30.85169 | -102.48243 | 37920 ft | 385 kts | 277° |
| 2026-05-08 15:44 | 30.86415 | -102.54319 | 37933 ft | 386 kts | 277° |
| 2026-05-08 15:45 | 30.87658 | -102.60398 | 37953 ft | 387 kts | 277° |
| 2026-05-08 15:45 | 30.88904 | -102.66502 | 37957 ft | 388 kts | 277° |
| 2026-05-08 15:46 | 30.90149 | -102.72621 | 37986 ft | 389 kts | 277° |
| 2026-05-08 15:46 | 30.91386 | -102.78712 | 38003 ft | 390 kts | 277° |
| 2026-05-08 15:47 | 30.92632 | -102.84869 | 38011 ft | 391 kts | 277° |
| 2026-05-08 15:47 | 30.93880 | -102.91046 | 37897 ft | 392 kts | 277° |
| 2026-05-08 15:48 | 30.95966 | -103.00290 | 37900 ft | 398 kts | 283° |
| 2026-05-08 15:49 | 30.97914 | -103.06358 | 37897 ft | 400 kts | 284° |
| 2026-05-08 15:49 | 30.99894 | -103.12423 | 37899 ft | 400 kts | 284° |
| 2026-05-08 15:50 | 31.01851 | -103.18503 | 37903 ft | 401 kts | 284° |
| 2026-05-08 15:50 | 31.03792 | -103.24598 | 37904 ft | 401 kts | 284° |
| 2026-05-08 15:51 | 31.05722 | -103.30691 | 37901 ft | 400 kts | 284° |
| 2026-05-08 15:51 | 31.07647 | -103.36785 | 37919 ft | 400 kts | 283° |
| 2026-05-08 15:52 | 31.09553 | -103.42829 | 37959 ft | 400 kts | 284° |
| 2026-05-08 15:52 | 31.11472 | -103.48918 | 37955 ft | 400 kts | 284° |
| 2026-05-08 15:53 | 31.13387 | -103.55019 | 37970 ft | 400 kts | 284° |
| 2026-05-08 15:53 | 31.15300 | -103.61121 | 37969 ft | 400 kts | 284° |
| 2026-05-08 15:54 | 31.17207 | -103.67214 | 37954 ft | 400 kts | 284° |
| 2026-05-08 15:54 | 31.19100 | -103.73275 | 37948 ft | 400 kts | 284° |
| 2026-05-08 15:55 | 31.21002 | -103.79375 | 37955 ft | 400 kts | 284° |
| 2026-05-08 15:55 | 31.23850 | -103.88533 | 37933 ft | 400 kts | 284° |
| 2026-05-08 15:56 | 31.25748 | -103.94651 | 37933 ft | 400 kts | 284° |
| 2026-05-08 15:56 | 31.27626 | -104.00714 | 37930 ft | 401 kts | 284° |
| 2026-05-08 15:57 | 31.29517 | -104.06833 | 37959 ft | 401 kts | 284° |
| 2026-05-08 15:57 | 31.31401 | -104.12949 | 37941 ft | 402 kts | 284° |
| 2026-05-08 15:58 | 31.33297 | -104.19103 | 37929 ft | 402 kts | 284° |
| 2026-05-08 15:58 | 31.35194 | -104.25272 | 37934 ft | 403 kts | 283° |
| 2026-05-08 15:59 | 31.37088 | -104.31451 | 37925 ft | 404 kts | 283° |
| 2026-05-08 15:59 | 31.38986 | -104.37651 | 37925 ft | 405 kts | 283° |
| 2026-05-08 16:00 | 31.40881 | -104.43854 | 37917 ft | 406 kts | 283° |
| 2026-05-08 16:00 | 31.42779 | -104.50081 | 37921 ft | 406 kts | 283° |
| 2026-05-08 16:01 | 31.44677 | -104.56317 | 37911 ft | 407 kts | 283° |
| 2026-05-08 16:01 | 31.46575 | -104.62568 | 37919 ft | 407 kts | 283° |
| 2026-05-08 16:02 | 31.48463 | -104.68798 | 37912 ft | 408 kts | 283° |
| 2026-05-08 16:02 | 31.50363 | -104.75083 | 37920 ft | 409 kts | 283° |
| 2026-05-08 16:03 | 31.52264 | -104.81379 | 37909 ft | 409 kts | 283° |
| 2026-05-08 16:03 | 31.54162 | -104.87680 | 37902 ft | 409 kts | 283° |
| 2026-05-08 16:04 | 31.56044 | -104.93938 | 37908 ft | 409 kts | 283° |
| 2026-05-08 16:04 | 31.57933 | -105.00234 | 37906 ft | 409 kts | 283° |
| 2026-05-08 16:05 | 31.59815 | -105.06522 | 37902 ft | 408 kts | 283° |
| 2026-05-08 16:05 | 31.61695 | -105.12815 | 37901 ft | 409 kts | 283° |
| 2026-05-08 16:06 | 31.63566 | -105.19091 | 37903 ft | 409 kts | 283° |
| 2026-05-08 16:06 | 31.65440 | -105.25390 | 37899 ft | 409 kts | 283° |
| 2026-05-08 16:07 | 31.67311 | -105.31691 | 37886 ft | 410 kts | 283° |
| 2026-05-08 16:07 | 31.69191 | -105.38035 | 37884 ft | 412 kts | 284° |
| 2026-05-08 16:08 | 31.71078 | -105.44420 | 37885 ft | 416 kts | 284° |
| 2026-05-08 16:08 | 31.72968 | -105.50827 | 37883 ft | 419 kts | 284° |
| 2026-05-08 16:09 | 31.74556 | -105.56219 | 37881 ft | 421 kts | 284° |
| 2026-05-08 16:09 | 31.76800 | -105.63851 | 37878 ft | 424 kts | 284° |
| 2026-05-08 16:10 | 31.78730 | -105.70424 | 37866 ft | 426 kts | 284° |
| 2026-05-08 16:10 | 31.80647 | -105.76980 | 37866 ft | 427 kts | 284° |
| 2026-05-08 16:11 | 31.82577 | -105.83594 | 37858 ft | 427 kts | 284° |
| 2026-05-08 16:11 | 31.84503 | -105.90203 | 37871 ft | 426 kts | 284° |
| 2026-05-08 16:12 | 31.86421 | -105.96801 | 37863 ft | 426 kts | 284° |
| 2026-05-08 16:12 | 31.88336 | -106.03387 | 37914 ft | 425 kts | 286° |
| 2026-05-08 16:13 | 31.90227 | -106.09936 | 37937 ft | 424 kts | 286° |
| 2026-05-08 16:13 | 31.92123 | -106.16510 | 37978 ft | 424 kts | 286° |
| 2026-05-08 16:14 | 31.94018 | -106.23086 | 38004 ft | 423 kts | 286° |
| 2026-05-08 16:14 | 31.95935 | -106.29653 | 38020 ft | 424 kts | 287° |
| 2026-05-08 16:15 | 31.98041 | -106.36137 | 38021 ft | 424 kts | 289° |
| 2026-05-08 16:15 | 32.00190 | -106.42620 | 38005 ft | 424 kts | 289° |
| 2026-05-08 16:16 | 32.02301 | -106.49073 | 37978 ft | 425 kts | 289° |
| 2026-05-08 16:16 | 32.04412 | -106.55587 | 37993 ft | 426 kts | 289° |
| 2026-05-08 16:17 | 32.06180 | -106.61064 | 37991 ft | 427 kts | 289° |
| 2026-05-08 16:17 | 32.08635 | -106.68690 | 37987 ft | 428 kts | 289° |
| 2026-05-08 16:18 | 32.10755 | -106.75285 | 37965 ft | 430 kts | 290° |
| 2026-05-08 16:18 | 32.12871 | -106.81886 | 37944 ft | 430 kts | 289° |
| 2026-05-08 16:19 | 32.14979 | -106.88475 | 38048 ft | 431 kts | 289° |
| 2026-05-08 16:19 | 32.17098 | -106.95114 | 38068 ft | 432 kts | 289° |
| 2026-05-08 16:20 | 32.18856 | -107.00630 | 38065 ft | 432 kts | 289° |
| 2026-05-08 16:20 | 32.20974 | -107.07287 | 38036 ft | 432 kts | 290° |
| 2026-05-08 16:21 | 32.23086 | -107.13939 | 38015 ft | 432 kts | 290° |
| 2026-05-08 16:21 | 32.25196 | -107.20602 | 37975 ft | 433 kts | 290° |
| 2026-05-08 16:22 | 32.27290 | -107.27227 | 37933 ft | 433 kts | 290° |
| 2026-05-08 16:22 | 32.29390 | -107.33886 | 37916 ft | 432 kts | 290° |
| 2026-05-08 16:23 | 32.31490 | -107.40558 | 37953 ft | 432 kts | 290° |
| 2026-05-08 16:23 | 32.33581 | -107.47220 | 37996 ft | 432 kts | 291° |
| 2026-05-08 16:24 | 32.35670 | -107.53881 | 37891 ft | 432 kts | 290° |
| 2026-05-08 16:24 | 32.37757 | -107.60556 | 37884 ft | 432 kts | 290° |
| 2026-05-08 16:25 | 32.39835 | -107.67214 | 37897 ft | 431 kts | 290° |
| 2026-05-08 16:25 | 32.41911 | -107.73880 | 37889 ft | 432 kts | 291° |
| 2026-05-08 16:26 | 32.43982 | -107.80552 | 37889 ft | 431 kts | 292° |
| 2026-05-08 16:26 | 32.46039 | -107.87180 | 37948 ft | 431 kts | 292° |
| 2026-05-08 16:27 | 32.48102 | -107.93847 | 38001 ft | 431 kts | 292° |
| 2026-05-08 16:27 | 32.50238 | -108.00489 | 38034 ft | 430 kts | 298° |
| 2026-05-08 16:28 | 32.53255 | -108.06568 | 38095 ft | 427 kts | 304° |
| 2026-05-08 16:28 | 32.56391 | -108.12555 | 38131 ft | 428 kts | 304° |
| 2026-05-08 16:29 | 32.59507 | -108.18567 | 38129 ft | 428 kts | 303° |
| 2026-05-08 16:29 | 32.62600 | -108.24600 | 38136 ft | 428 kts | 303° |
| 2026-05-08 16:30 | 32.65665 | -108.30610 | 38100 ft | 428 kts | 303° |
| 2026-05-08 16:30 | 32.68740 | -108.36653 | 38060 ft | 428 kts | 303° |
| 2026-05-08 16:31 | 32.71814 | -108.42702 | 38007 ft | 427 kts | 303° |
| 2026-05-08 16:31 | 32.74876 | -108.48739 | 37965 ft | 426 kts | 304° |
| 2026-05-08 16:32 | 32.77931 | -108.54769 | 37932 ft | 425 kts | 304° |
| 2026-05-08 16:32 | 32.80978 | -108.60793 | 37927 ft | 424 kts | 304° |
| 2026-05-08 16:33 | 32.84015 | -108.66808 | 37937 ft | 424 kts | 304° |
| 2026-05-08 16:33 | 32.87045 | -108.72818 | 37925 ft | 424 kts | 304° |
| 2026-05-08 16:34 | 32.90061 | -108.78812 | 37915 ft | 424 kts | 304° |
| 2026-05-08 16:34 | 32.93082 | -108.84823 | 37918 ft | 423 kts | 304° |
| 2026-05-08 16:35 | 32.96100 | -108.90840 | 37920 ft | 423 kts | 304° |
| 2026-05-08 16:35 | 32.99114 | -108.96859 | 37934 ft | 422 kts | 304° |
| 2026-05-08 16:36 | 33.02121 | -109.02875 | 37915 ft | 423 kts | 304° |
| 2026-05-08 16:36 | 33.05130 | -109.08901 | 37919 ft | 423 kts | 304° |
| 2026-05-08 16:37 | 33.08135 | -109.14930 | 37911 ft | 422 kts | 304° |
| 2026-05-08 16:37 | 33.11128 | -109.20947 | 37921 ft | 422 kts | 304° |
| 2026-05-08 16:38 | 33.14117 | -109.26964 | 37921 ft | 422 kts | 304° |
| 2026-05-08 16:38 | 33.17089 | -109.32955 | 37914 ft | 421 kts | 304° |
| 2026-05-08 16:39 | 33.20068 | -109.38974 | 37933 ft | 420 kts | 304° |
| 2026-05-08 16:39 | 33.23036 | -109.44980 | 37917 ft | 419 kts | 304° |
| 2026-05-08 16:40 | 33.25995 | -109.50978 | 37926 ft | 418 kts | 304° |
| 2026-05-08 16:40 | 33.28941 | -109.56958 | 37935 ft | 417 kts | 304° |
| 2026-05-08 16:41 | 33.31866 | -109.62903 | 37937 ft | 416 kts | 304° |
| 2026-05-08 16:42 | 33.36260 | -109.71857 | 37946 ft | 416 kts | 304° |
| 2026-05-08 16:42 | 33.39190 | -109.77840 | 37966 ft | 416 kts | 304° |
| 2026-05-08 16:43 | 33.42120 | -109.83829 | 37945 ft | 416 kts | 304° |
| 2026-05-08 16:43 | 33.45027 | -109.89787 | 37952 ft | 416 kts | 304° |
| 2026-05-08 16:44 | 33.47945 | -109.95774 | 37960 ft | 416 kts | 304° |
| 2026-05-08 16:44 | 33.50877 | -110.01768 | 37968 ft | 416 kts | 305° |
| 2026-05-08 16:45 | 33.53909 | -110.07692 | 37959 ft | 416 kts | 306° |
| 2026-05-08 16:45 | 33.56946 | -110.13566 | 37973 ft | 416 kts | 306° |
| 2026-05-08 16:46 | 33.59983 | -110.19477 | 37969 ft | 416 kts | 305° |
| 2026-05-08 16:46 | 33.63015 | -110.25402 | 37964 ft | 416 kts | 305° |
| 2026-05-08 16:47 | 33.66039 | -110.31328 | 37971 ft | 416 kts | 305° |
| 2026-05-08 16:47 | 33.69058 | -110.37257 | 37965 ft | 416 kts | 305° |
| 2026-05-08 16:48 | 33.72053 | -110.43149 | 37969 ft | 416 kts | 305° |
| 2026-05-08 16:48 | 33.75065 | -110.49084 | 37948 ft | 416 kts | 304° |
| 2026-05-08 16:49 | 33.78075 | -110.55023 | 37963 ft | 415 kts | 304° |
| 2026-05-08 16:49 | 33.81084 | -110.60972 | 37969 ft | 415 kts | 304° |
| 2026-05-08 16:50 | 33.84066 | -110.66878 | 37969 ft | 415 kts | 304° |
| 2026-05-08 16:50 | 33.87066 | -110.72827 | 37981 ft | 416 kts | 304° |
| 2026-05-08 16:51 | 33.90065 | -110.78785 | 37963 ft | 416 kts | 304° |
| 2026-05-08 16:51 | 33.93064 | -110.84752 | 37958 ft | 416 kts | 303° |
| 2026-05-08 16:52 | 33.96058 | -110.90721 | 37970 ft | 416 kts | 303° |
| 2026-05-08 16:52 | 33.99028 | -110.96649 | 37964 ft | 415 kts | 303° |
| 2026-05-08 16:53 | 34.03495 | -111.05590 | 38002 ft | 415 kts | 303° |
| 2026-05-08 16:53 | 34.06476 | -111.11565 | 38041 ft | 415 kts | 303° |
| 2026-05-08 16:54 | 34.09451 | -111.17542 | 38075 ft | 415 kts | 303° |
| 2026-05-08 16:54 | 34.12400 | -111.23474 | 38123 ft | 415 kts | 303° |
| 2026-05-08 16:55 | 34.15369 | -111.29455 | 38151 ft | 415 kts | 303° |
| 2026-05-08 16:55 | 34.18333 | -111.35437 | 38182 ft | 415 kts | 303° |
| 2026-05-08 16:56 | 34.21296 | -111.41428 | 38174 ft | 415 kts | 303° |
| 2026-05-08 16:56 | 34.24240 | -111.47390 | 38155 ft | 415 kts | 303° |
| 2026-05-08 16:57 | 34.27198 | -111.53392 | 38116 ft | 415 kts | 303° |
| 2026-05-08 16:57 | 34.28675 | -111.56392 | 37959 ft | 415 kts | 303° |
| 2026-05-08 16:57 | 34.30155 | -111.59401 | 37972 ft | 415 kts | 303° |
| 2026-05-08 16:58 | 34.33103 | -111.65402 | 37961 ft | 416 kts | 303° |
| 2026-05-08 16:58 | 34.36060 | -111.71430 | 37959 ft | 416 kts | 303° |
| 2026-05-08 16:59 | 34.38993 | -111.77421 | 37957 ft | 416 kts | 303° |
| 2026-05-08 16:59 | 34.41942 | -111.83455 | 37939 ft | 416 kts | 302° |
| 2026-05-08 17:00 | 34.44887 | -111.89491 | 37958 ft | 416 kts | 302° |
| 2026-05-08 17:00 | 34.47830 | -111.95535 | 37948 ft | 416 kts | 302° |
| 2026-05-08 17:01 | 34.50739 | -112.01603 | 37940 ft | 417 kts | 300° |
| 2026-05-08 17:01 | 34.53405 | -112.07836 | 37983 ft | 416 kts | 298° |
| 2026-05-08 17:02 | 34.56017 | -112.14101 | 38029 ft | 416 kts | 298° |
| 2026-05-08 17:02 | 34.58646 | -112.20352 | 38083 ft | 415 kts | 298° |
| 2026-05-08 17:03 | 34.61282 | -112.26592 | 38125 ft | 415 kts | 298° |
| 2026-05-08 17:03 | 34.63918 | -112.32833 | 38164 ft | 415 kts | 298° |
| 2026-05-08 17:04 | 34.66532 | -112.39035 | 38171 ft | 415 kts | 298° |
| 2026-05-08 17:04 | 34.69157 | -112.45275 | 38147 ft | 415 kts | 298° |
| 2026-05-08 17:05 | 34.70464 | -112.48438 | 37837 ft | 420 kts | 295° |
| 2026-05-08 17:05 | 34.71609 | -112.51698 | 37345 ft | 419 kts | 293° |
| 2026-05-08 17:05 | 34.72683 | -112.54984 | 37090 ft | 419 kts | 292° |
| 2026-05-08 17:05 | 34.73737 | -112.58291 | 36822 ft | 419 kts | 292° |
| 2026-05-08 17:06 | 34.74789 | -112.61598 | 36562 ft | 420 kts | 292° |
| 2026-05-08 17:06 | 34.75493 | -112.63799 | 36392 ft | 421 kts | 293° |
| 2026-05-08 17:06 | 34.76557 | -112.67112 | 36142 ft | 421 kts | 293° |
| 2026-05-08 17:06 | 34.77631 | -112.70438 | 35890 ft | 421 kts | 293° |
| 2026-05-08 17:07 | 34.78707 | -112.73757 | 35640 ft | 421 kts | 293° |
| 2026-05-08 17:07 | 34.79779 | -112.77062 | 35398 ft | 420 kts | 293° |
| 2026-05-08 17:07 | 34.80848 | -112.80356 | 35144 ft | 419 kts | 293° |
| 2026-05-08 17:07 | 34.81915 | -112.83647 | 34896 ft | 417 kts | 293° |
| 2026-05-08 17:08 | 34.82974 | -112.86919 | 34650 ft | 415 kts | 293° |
| 2026-05-08 17:08 | 34.84033 | -112.90193 | 34407 ft | 413 kts | 293° |
| 2026-05-08 17:08 | 34.85083 | -112.93443 | 34160 ft | 411 kts | 293° |
| 2026-05-08 17:08 | 34.86128 | -112.96681 | 33946 ft | 410 kts | 293° |
| 2026-05-08 17:09 | 34.87166 | -112.99904 | 33674 ft | 408 kts | 293° |
| 2026-05-08 17:09 | 34.88198 | -113.03109 | 33401 ft | 406 kts | 293° |
| 2026-05-08 17:09 | 34.89228 | -113.06311 | 33146 ft | 404 kts | 293° |
| 2026-05-08 17:09 | 34.90250 | -113.09491 | 32882 ft | 403 kts | 293° |
| 2026-05-08 17:10 | 34.91254 | -113.12618 | 32614 ft | 401 kts | 293° |
| 2026-05-08 17:10 | 34.92268 | -113.15781 | 32358 ft | 400 kts | 293° |
| 2026-05-08 17:10 | 34.93276 | -113.18930 | 32082 ft | 396 kts | 293° |
| 2026-05-08 17:10 | 34.94271 | -113.22042 | 31766 ft | 392 kts | 293° |
| 2026-05-08 17:11 | 34.95256 | -113.25125 | 31378 ft | 389 kts | 293° |
| 2026-05-08 17:11 | 34.96237 | -113.28195 | 31001 ft | 387 kts | 293° |
| 2026-05-08 17:11 | 34.97211 | -113.31246 | 30633 ft | 385 kts | 293° |
| 2026-05-08 17:11 | 34.98178 | -113.34282 | 30264 ft | 383 kts | 293° |
| 2026-05-08 17:12 | 34.99339 | -113.37171 | 29853 ft | 378 kts | 308° |
| 2026-05-08 17:12 | 35.01121 | -113.39475 | 29477 ft | 372 kts | 320° |
| 2026-05-08 17:12 | 35.03099 | -113.41490 | 29096 ft | 369 kts | 322° |
| 2026-05-08 17:12 | 35.05065 | -113.43416 | 28706 ft | 365 kts | 322° |
| 2026-05-08 17:13 | 35.07039 | -113.45343 | 28385 ft | 363 kts | 322° |
| 2026-05-08 17:13 | 35.09009 | -113.47283 | 28032 ft | 365 kts | 322° |
| 2026-05-08 17:13 | 35.10987 | -113.49249 | 27670 ft | 367 kts | 322° |
| 2026-05-08 17:13 | 35.12955 | -113.51219 | 27313 ft | 365 kts | 322° |
| 2026-05-08 17:14 | 35.14905 | -113.53181 | 26963 ft | 362 kts | 322° |
| 2026-05-08 17:14 | 35.16843 | -113.55133 | 26628 ft | 360 kts | 322° |
| 2026-05-08 17:14 | 35.18765 | -113.57075 | 26313 ft | 358 kts | 322° |
| 2026-05-08 17:14 | 35.20678 | -113.59010 | 25980 ft | 356 kts | 322° |
| 2026-05-08 17:15 | 35.22583 | -113.60938 | 25642 ft | 354 kts | 322° |
| 2026-05-08 17:15 | 35.24473 | -113.62852 | 25315 ft | 352 kts | 322° |
| 2026-05-08 17:15 | 35.26358 | -113.64760 | 25002 ft | 350 kts | 322° |
| 2026-05-08 17:15 | 35.28233 | -113.66660 | 24677 ft | 349 kts | 322° |
| 2026-05-08 17:16 | 35.30095 | -113.68547 | 24350 ft | 347 kts | 322° |
| 2026-05-08 17:16 | 35.31955 | -113.70433 | 24024 ft | 346 kts | 322° |
| 2026-05-08 17:16 | 35.33806 | -113.72312 | 23687 ft | 345 kts | 322° |
| 2026-05-08 17:16 | 35.35630 | -113.74164 | 23319 ft | 344 kts | 323° |
| 2026-05-08 17:17 | 35.37473 | -113.76037 | 22943 ft | 343 kts | 322° |
| 2026-05-08 17:17 | 35.39300 | -113.77894 | 22608 ft | 339 kts | 322° |
| 2026-05-08 17:17 | 35.41104 | -113.79730 | 22270 ft | 335 kts | 322° |
| 2026-05-08 17:17 | 35.42891 | -113.81550 | 21935 ft | 332 kts | 322° |
| 2026-05-08 17:18 | 35.44658 | -113.83350 | 21599 ft | 328 kts | 322° |
| 2026-05-08 17:18 | 35.46410 | -113.85137 | 21296 ft | 326 kts | 322° |
| 2026-05-08 17:18 | 35.48128 | -113.86889 | 20990 ft | 323 kts | 322° |
| 2026-05-08 17:18 | 35.49851 | -113.88647 | 20653 ft | 321 kts | 321° |
| 2026-05-08 17:19 | 35.51585 | -113.90417 | 20330 ft | 319 kts | 321° |
| 2026-05-08 17:19 | 35.53265 | -113.92134 | 20020 ft | 318 kts | 321° |
| 2026-05-08 17:19 | 35.54965 | -113.93872 | 19704 ft | 317 kts | 321° |
| 2026-05-08 17:19 | 35.56658 | -113.95604 | 19382 ft | 317 kts | 321° |
| 2026-05-08 17:20 | 35.58373 | -113.97359 | 19070 ft | 317 kts | 321° |
| 2026-05-08 17:20 | 35.60039 | -113.99065 | 18755 ft | 317 kts | 321° |
| 2026-05-08 17:20 | 35.61735 | -114.00803 | 18425 ft | 317 kts | 321° |
| 2026-05-08 17:20 | 35.63430 | -114.02541 | 18116 ft | 318 kts | 320° |
| 2026-05-08 17:21 | 35.65131 | -114.04286 | 17770 ft | 318 kts | 320° |
| 2026-05-08 17:21 | 35.66831 | -114.06031 | 17444 ft | 317 kts | 320° |
| 2026-05-08 17:21 | 35.68521 | -114.07768 | 17131 ft | 316 kts | 320° |
| 2026-05-08 17:21 | 35.70207 | -114.09500 | 16827 ft | 315 kts | 320° |
| 2026-05-08 17:22 | 35.71883 | -114.11224 | 16514 ft | 314 kts | 320° |
| 2026-05-08 17:22 | 35.73556 | -114.12945 | 16208 ft | 312 kts | 320° |
| 2026-05-08 17:22 | 35.75222 | -114.14666 | 15901 ft | 311 kts | 317° |
| 2026-05-08 17:22 | 35.76564 | -114.16711 | 15577 ft | 308 kts | 299° |
| 2026-05-08 17:23 | 35.77564 | -114.18999 | 15307 ft | 306 kts | 297° |
| 2026-05-08 17:23 | 35.78554 | -114.21315 | 15022 ft | 304 kts | 297° |
| 2026-05-08 17:23 | 35.79545 | -114.23615 | 14730 ft | 303 kts | 297° |
| 2026-05-08 17:23 | 35.80543 | -114.25904 | 14436 ft | 302 kts | 298° |
| 2026-05-08 17:24 | 35.81539 | -114.28171 | 14130 ft | 301 kts | 297° |
| 2026-05-08 17:24 | 35.82538 | -114.30438 | 13848 ft | 300 kts | 297° |
| 2026-05-08 17:24 | 35.83535 | -114.32700 | 13540 ft | 300 kts | 297° |
| 2026-05-08 17:24 | 35.84616 | -114.34861 | 13224 ft | 299 kts | 305° |
| 2026-05-08 17:25 | 35.85882 | -114.36894 | 12921 ft | 298 kts | 307° |
| 2026-05-08 17:25 | 35.87174 | -114.38881 | 12628 ft | 296 kts | 308° |
| 2026-05-08 17:25 | 35.88452 | -114.40859 | 12334 ft | 294 kts | 308° |
| 2026-05-08 17:25 | 35.89712 | -114.42834 | 12047 ft | 292 kts | 307° |
| 2026-05-08 17:26 | 35.90954 | -114.44801 | 11782 ft | 290 kts | 307° |
| 2026-05-08 17:26 | 35.92185 | -114.46766 | 11507 ft | 288 kts | 307° |
| 2026-05-08 17:26 | 35.93404 | -114.48719 | 11234 ft | 286 kts | 307° |
| 2026-05-08 17:26 | 35.94614 | -114.50660 | 10975 ft | 284 kts | 307° |
| 2026-05-08 17:27 | 35.95817 | -114.52595 | 10710 ft | 283 kts | 307° |
| 2026-05-08 17:27 | 35.97006 | -114.54519 | 10441 ft | 281 kts | 307° |
| 2026-05-08 17:27 | 35.98186 | -114.56435 | 10175 ft | 280 kts | 307° |
| 2026-05-08 17:27 | 35.99363 | -114.58347 | 9916 ft | 278 kts | 307° |
| 2026-05-08 17:28 | 36.00531 | -114.60244 | 9645 ft | 276 kts | 307° |
| 2026-05-08 17:28 | 36.01684 | -114.62092 | 9348 ft | 274 kts | 309° |
| 2026-05-08 17:28 | 36.02852 | -114.63929 | 9115 ft | 271 kts | 307° |
| 2026-05-08 17:28 | 36.03964 | -114.65808 | 8832 ft | 270 kts | 304° |
| 2026-05-08 17:29 | 36.04946 | -114.67768 | 8574 ft | 267 kts | 301° |
| 2026-05-08 17:29 | 36.05888 | -114.69733 | 8328 ft | 266 kts | 301° |
| 2026-05-08 17:29 | 36.06827 | -114.71697 | 8071 ft | 265 kts | 299° |
| 2026-05-08 17:29 | 36.07349 | -114.73880 | 7760 ft | 268 kts | 275° |
| 2026-05-08 17:30 | 36.07368 | -114.76177 | 7480 ft | 267 kts | 271° |
| 2026-05-08 17:30 | 36.07358 | -114.78469 | 7185 ft | 268 kts | 271° |
| 2026-05-08 17:30 | 36.07354 | -114.80776 | 6882 ft | 269 kts | 271° |
| 2026-05-08 17:30 | 36.07355 | -114.83097 | 6552 ft | 268 kts | 271° |
| 2026-05-08 17:31 | 36.07355 | -114.85187 | 6443 ft | 251 kts | 271° |
| 2026-05-08 17:31 | 36.07356 | -114.87258 | 6323 ft | 231 kts | 271° |
| 2026-05-08 17:31 | 36.07370 | -114.89168 | 6170 ft | 214 kts | 273° |
| 2026-05-08 17:31 | 36.07399 | -114.91016 | 5619 ft | 217 kts | 272° |
| 2026-05-08 17:32 | 36.07405 | -114.92879 | 5094 ft | 219 kts | 270° |
| 2026-05-08 17:32 | 36.07401 | -114.94728 | 4773 ft | 210 kts | 270° |
| 2026-05-08 17:32 | 36.07395 | -114.96502 | 4522 ft | 203 kts | 270° |
| 2026-05-08 17:32 | 36.07391 | -114.98223 | 4265 ft | 197 kts | 270° |
| 2026-05-08 17:33 | 36.07387 | -114.99902 | 4028 ft | 194 kts | 270° |
| 2026-05-08 17:33 | 36.07384 | -115.01550 | 3790 ft | 188 kts | 270° |
| 2026-05-08 17:33 | 36.07381 | -115.03118 | 3594 ft | 174 kts | 270° |
| 2026-05-08 17:33 | 36.07378 | -115.04548 | 3361 ft | 160 kts | 270° |
| 2026-05-08 17:34 | 36.07375 | -115.05888 | 3187 ft | 154 kts | 270° |
| 2026-05-08 17:34 | 36.07373 | -115.07204 | 3007 ft | 153 kts | 270° |
| 2026-05-08 17:34 | 36.07371 | -115.08532 | 2806 ft | 155 kts | 270° |
| 2026-05-08 17:34 | 36.07369 | -115.09851 | 2585 ft | 155 kts | 270° |
| 2026-05-08 17:35 | 36.07366 | -115.11187 | 2352 ft | 155 kts | 270° |
| 2026-05-08 17:35 | 36.07367 | -115.12521 | 2143 ft | 155 kts | 270° |
| 2026-05-08 17:35 | 36.07367 | -115.13810 | 2076 ft | 137 kts | 270° |
| 2026-05-08 17:35 | 36.07367 | -115.14799 | 2094 ft | 90 kts | 270° |
| 2026-05-08 17:36 | 36.07398 | -115.15321 | 2104 ft | 30 kts | 289° |
| 2026-05-08 17:36 | 36.07480 | -115.15530 | 2106 ft | 20 kts | 300° |
| 2026-05-08 17:36 | 36.07533 | -115.15616 | 2109 ft | 0 kts | 313° |
| 2026-05-08 17:36 | 36.07535 | -115.15617 | 2110 ft | 0 kts | 313° |
| 2026-05-08 17:40 | 36.07548 | -115.15634 | 2111 ft | 5 kts | 314° |
| 2026-05-08 17:40 | 36.07574 | -115.15666 | 2115 ft | 5 kts | 315° |
| 2026-05-08 17:41 | 36.07600 | -115.15699 | 2118 ft | 5 kts | 315° |
| 2026-05-08 17:41 | 36.07631 | -115.15736 | 2121 ft | 8 kts | 316° |
| 2026-05-08 17:41 | 36.07681 | -115.15795 | 2121 ft | 12 kts | 323° |
| 2026-05-08 17:41 | 36.07786 | -115.15801 | 2111 ft | 21 kts | 45° |
| 2026-05-08 17:42 | 36.07805 | -115.15607 | 2104 ft | 24 kts | 90° |
| 2026-05-08 17:42 | 36.07805 | -115.15404 | 2101 ft | 23 kts | 90° |
| 2026-05-08 17:42 | 36.07805 | -115.15209 | 2100 ft | 22 kts | 90° |
| 2026-05-08 17:42 | 36.07799 | -115.15019 | 2099 ft | 22 kts | 95° |
| 2026-05-08 17:43 | 36.07796 | -115.14835 | 2098 ft | 21 kts | 77° |
| 2026-05-08 17:43 | 36.07855 | -115.14671 | 2096 ft | 21 kts | 60° |
| 2026-05-08 17:43 | 36.07953 | -115.14621 | 2096 ft | 8 kts | 354° |
| 2026-05-08 17:43 | 36.07968 | -115.14623 | 2096 ft | 0 kts | 354° |